Time;durP1;ratioP1;P1;durP2;ratioP2;P2;SDS_P1;SDS_P2;PMS_P1;PMS_P2;Temp;Humidity;BMP_temperature;BMP_pressure;BME280_temperature;BME280_humidity;BME280_pressure;Samples;Min_cycle;Max_cycle;Signal;HPM_P1;HPM_P2
2022/05/21 00:02:14;;;;;;;;;;;;;;;17.71;46.42;99609.83;1673167;83;21036;-68
2022/05/21 00:04:43;;;;;;;2.85;2.10;;;;;;;17.76;46.47;99617.68;1646282;84;20179;-69
2022/05/21 00:07:13;;;;;;;2.98;1.85;;;;;;;17.73;46.62;99611.47;1626735;88;21085;-72
2022/05/21 00:09:40;;;;;;;3.98;2.75;;;;;;;17.74;46.72;99606.34;1614369;88;21019;-69
2022/05/21 00:12:07;;;;;;;3.70;1.65;;;;;;;17.75;47.04;99608.79;1620725;86;21094;-72
2022/05/21 00:14:36;;;;;;;3.12;1.50;;;;;;;17.75;47.07;99607.44;1628919;88;21478;-69
2022/05/21 00:17:04;;;;;;;6.25;1.45;;;;;;;17.78;47.38;99612.34;1615696;86;21052;-70
2022/05/21 00:19:30;;;;;;;2.83;1.95;;;;;;;17.78;47.44;99608.80;1622996;87;21089;-70
2022/05/21 00:21:58;;;;;;;3.83;2.22;;;;;;;17.80;47.77;99603.97;1619618;87;21070;-69
2022/05/21 00:24:24;;;;;;;4.70;1.80;;;;;;;17.78;47.82;99602.06;1618546;87;21103;-69
2022/05/21 00:26:51;;;;;;;3.08;2.02;;;;;;;17.78;47.88;99606.11;1592110;88;21030;-69
2022/05/21 00:29:20;;;;;;;;;;;;;;;17.78;48.05;99605.59;1649569;85;21069;-69
2022/05/21 00:31:45;;;;;;;2.62;2.00;;;;;;;17.82;48.25;99601.83;1650480;85;20130;-70
2022/05/21 00:34:11;;;;;;;2.50;1.72;;;;;;;17.76;48.45;99602.31;1655916;85;21050;-70
2022/05/21 00:36:38;;;;;;;5.00;2.27;;;;;;;17.78;48.53;99603.41;1668615;85;21060;-70
2022/05/21 00:39:04;;;;;;;3.98;1.67;;;;;;;17.77;48.78;99595.06;1656359;85;21030;-70
2022/05/21 00:41:31;;;;;;;3.37;1.77;;;;;;;17.77;48.79;99595.87;1664955;85;21023;-69
2022/05/21 00:44:02;;;;;;;7.47;1.90;;;;;;;17.77;49.07;99597.22;1665926;85;21105;-70
2022/05/21 00:46:38;;;;;;;2.58;1.87;;;;;;;17.78;49.11;99603.41;1661255;85;21001;-69
2022/05/21 00:49:24;;;;;;;3.80;2.15;;;;;;;17.77;49.21;99593.72;1646548;85;21147;-71
2022/05/21 00:51:58;;;;;;;4.60;2.02;;;;;;;17.80;49.44;99605.31;1656321;85;21564;-69
2022/05/21 00:54:34;;;;;;;10.78;2.27;;;;;;;17.80;49.51;99606.16;1652123;85;21043;-70
2022/05/21 00:57:21;;;;;;;2.55;1.77;;;;;;;17.82;49.88;99609.92;1649900;84;21009;-69
2022/05/21 00:59:53;;;;;;;4.20;2.22;;;;;;;17.83;49.85;99598.08;1651184;84;21115;-68
2022/05/21 01:02:33;;;;;;;1.92;1.40;;;;;;;17.80;50.18;99593.19;1655670;84;21065;-69
2022/05/21 01:05:02;;;;;;;3.92;1.32;;;;;;;17.83;50.19;99593.50;1658064;84;21133;-69
2022/05/21 01:07:29;;;;;;;3.72;2.05;;;;;;;17.85;50.55;99595.44;1661495;84;21069;-70
2022/05/21 01:09:58;;;;;;;2.70;1.72;;;;;;;17.85;50.55;99595.44;1625081;86;21576;-70
2022/05/21 01:12:29;;;;;;;7.53;2.15;;;;;;;17.83;50.65;99602.93;1672134;84;21007;-69
2022/05/21 01:15:01;;;;;;;3.33;1.65;;;;;;;17.84;50.80;99602.42;1671449;84;21065;-72
2022/05/21 01:17:28;;;;;;;6.20;2.40;;;;;;;17.82;51.03;99604.02;1656287;84;21070;-68
2022/05/21 01:20:06;;;;;;;4.95;2.37;;;;;;;17.81;51.23;99605.61;1670941;84;21080;-70
2022/05/21 01:22:42;;;;;;;4.78;1.92;;;;;;;17.81;51.23;99605.61;1656516;84;21522;-69
2022/05/21 01:25:12;;;;;;;3.10;1.82;;;;;;;17.79;51.62;99603.70;1667172;84;21115;-70
2022/05/21 01:27:39;;;;;;;3.83;1.77;;;;;;;17.79;51.94;99605.86;1670621;84;21022;-69
2022/05/21 01:30:10;;;;;;;6.53;1.87;;;;;;;17.79;52.16;99605.86;1660186;84;21041;-70
2022/05/21 01:32:36;;;;;;;3.75;1.95;;;;;;;17.79;52.28;99602.36;1667113;84;21552;-71
2022/05/21 01:35:06;;;;;;;4.55;2.22;;;;;;;17.78;52.86;99602.06;1665190;84;21002;-69
2022/05/21 01:37:33;;;;;;;5.78;1.90;;;;;;;17.78;52.83;99593.98;1665726;84;21017;-68
2022/05/21 01:39:59;;;;;;;2.70;2.33;;;;;;;17.79;52.85;99595.63;1663652;84;21072;-69
2022/05/21 01:42:25;;;;;;;3.75;2.52;;;;;;;17.79;53.33;99596.42;1632497;86;21117;-70
2022/05/21 01:44:52;;;;;;;2.85;2.45;;;;;;;17.77;53.25;99595.87;1631839;86;21037;-71
2022/05/21 01:47:20;;;;;;;5.97;2.40;;;;;;;17.75;53.77;99599.36;1654681;84;21080;-70
2022/05/21 01:49:47;;;;;;;5.78;1.85;;;;;;;17.74;53.80;99592.86;1643713;84;21071;-70
2022/05/21 01:52:14;;;;;;;11.88;2.75;;;;;;;17.75;54.04;99593.16;1623916;87;21010;-69
2022/05/21 01:54:40;;;;;;;4.67;1.92;;;;;;;17.75;54.50;99593.97;1656861;84;21018;-70
2022/05/21 01:57:09;;;;;;;7.30;2.55;;;;;;;17.77;54.74;99591.02;1687344;82;21078;-70
2022/05/21 01:59:36;;;;;;;12.37;2.02;;;;;;;17.77;54.62;99586.98;1706377;82;20963;-68
2022/05/21 02:02:05;;;;;;;10.98;2.45;;;;;;;17.75;54.82;99584.53;1683010;83;21045;-69
2022/05/21 02:04:33;;;;;;;2.72;1.92;;;;;;;17.75;55.04;99579.68;1690978;83;21029;-70
2022/05/21 02:07:00;;;;;;;14.30;2.02;;;;;;;17.76;55.11;99581.30;1664119;83;21113;-69
2022/05/21 02:09:26;;;;;;;4.95;2.27;;;;;;;17.75;55.47;99568.36;1680006;83;21109;-69
2022/05/21 02:11:52;;;;;;;4.47;1.75;;;;;;;17.75;55.61;99569.70;1672361;83;20961;-69
2022/05/21 02:14:19;;;;;;;4.00;1.72;;;;;;;17.76;55.84;99574.55;1687785;84;21068;-70
2022/05/21 02:16:46;;;;;;;2.77;2.05;;;;;;;17.73;56.22;99570.50;1676209;84;21119;-70
2022/05/21 02:19:12;;;;;;;;;;;;;;;17.74;56.04;99573.45;1689144;84;21047;-71
2022/05/21 02:21:41;;;;;;;6.67;2.58;;;;;;;17.77;56.36;99573.50;1683862;84;20481;-69
2022/05/21 02:24:09;;;;;;;9.05;2.75;;;;;;;17.75;56.21;99575.64;1704840;83;21004;-69
2022/05/21 02:26:38;;;;;;;2.12;2.00;;;;;;;17.75;56.21;99575.64;1707471;83;21560;-69
2022/05/21 02:29:06;;;;;;;5.30;1.90;;;;;;;17.79;56.45;99573.52;1709808;83;20980;-70
2022/05/21 02:31:32;;;;;;;4.67;2.83;;;;;;;17.84;56.61;99583.04;1698470;83;21061;-70
2022/05/21 02:33:59;;;;;;;9.28;2.30;;;;;;;17.87;56.92;99582.52;1709549;83;21587;-70
2022/05/21 02:39:28;;;;;;;2.55;2.40;;;;;;;17.92;56.79;99574.22;1696599;83;21860;-71
2022/05/21 02:41:57;;;;;;;3.72;2.10;;;;;;;17.95;56.69;99578.56;1710053;83;21048;-71
2022/05/21 02:44:24;;;;;;;3.50;2.37;;;;;;;17.99;57.09;99576.98;1697448;83;21026;-69
2022/05/21 02:46:55;;;;;;;3.65;2.58;;;;;;;18.01;56.97;99578.08;1648957;85;21065;-69
2022/05/21 02:49:22;;;;;;;7.83;3.42;;;;;;;18.00;57.25;99573.20;1651534;85;21580;-69
2022/05/21 02:51:49;;;;;;;6.97;2.30;;;;;;;17.98;57.37;99575.88;1653851;85;21102;-69
2022/05/21 02:54:16;;;;;;;7.97;2.80;;;;;;;17.98;57.36;99575.88;1665818;85;21663;-70
2022/05/21 02:56:50;;;;;;;;;;;;;;;17.99;57.31;99568.89;1680357;83;21045;-73
2022/05/21 02:59:17;;;;;;;5.95;2.50;;;;;;;17.99;57.63;99570.23;1686010;83;20218;-69
2022/05/21 03:01:43;;;;;;;4.83;2.22;;;;;;;17.93;57.79;99562.34;1687227;82;20974;-70
2022/05/21 03:04:09;;;;;;;6.83;2.85;;;;;;;17.94;57.77;99564.80;1694155;83;21122;-69
2022/05/21 03:06:36;;;;;;;5.00;2.40;;;;;;;17.97;57.87;99558.90;1676161;83;21057;-70
2022/05/21 03:11:49;;;;;;;2.85;2.65;;;;;;;18.10;57.80;99564.38;1682686;83;21117;-69
2022/05/21 03:14:17;;;;;;;6.58;2.75;;;;;;;18.27;57.45;99558.85;1661636;85;21099;-70
2022/05/21 03:16:43;;;;;;;4.42;3.20;;;;;;;18.48;56.99;99558.48;1662306;85;21071;-70
2022/05/21 03:19:09;;;;;;;9.73;2.60;;;;;;;18.69;56.50;99551.33;1633777;86;21035;-70
2022/05/21 03:21:37;;;;;;;4.12;2.00;;;;;;;18.80;56.09;99551.70;1667462;85;21366;-70
2022/05/21 03:24:04;;;;;;;4.42;2.35;;;;;;;18.77;55.97;99545.42;1646553;85;21527;-69
2022/05/21 03:26:31;;;;;;;3.02;2.40;;;;;;;18.71;56.16;99549.18;1651206;85;21004;-69
2022/05/21 03:28:58;;;;;;;5.97;2.62;;;;;;;18.60;56.49;99555.05;1651181;85;21057;-70
2022/05/21 03:31:25;;;;;;;12.90;2.42;;;;;;;18.51;56.66;99556.60;1658303;85;21072;-69
2022/05/21 03:33:51;;;;;;;2.67;2.47;;;;;;;18.47;56.84;99551.45;1654329;84;22576;-69
2022/05/21 03:36:17;;;;;;;;;;;;;;;18.44;57.01;99550.09;1644972;87;21071;-70
2022/05/21 03:38:44;;;;;;;4.65;2.87;;;;;;;18.42;57.16;99547.36;1621234;87;20449;-69
2022/05/21 03:41:10;;;;;;;2.87;2.65;;;;;;;18.38;57.57;99540.86;1612111;87;21051;-70
2022/05/21 03:43:38;;;;;;;2.58;2.37;;;;;;;18.41;57.51;99548.45;1618050;87;21088;-69
2022/05/21 03:46:04;;;;;;;4.65;2.05;;;;;;;18.46;57.56;99542.55;1689220;82;20963;-69
2022/05/21 03:48:33;;;;;;;6.78;2.98;;;;;;;18.60;57.25;99543.45;1712145;82;21033;-70
2022/05/21 03:50:59;;;;;;;3.65;2.67;;;;;;;18.83;56.93;99537.66;1699677;82;21564;-70
2022/05/21 03:53:26;;;;;;;4.42;2.22;;;;;;;19.16;55.80;99532.14;1693930;82;21099;-69
2022/05/21 03:55:54;;;;;;;2.92;2.10;;;;;;;19.35;55.57;99525.17;1699557;82;21144;-69
2022/05/21 03:58:20;;;;;;;5.12;2.60;;;;;;;19.54;54.74;99526.84;1668504;85;21061;-70
2022/05/21 04:00:46;;;;;;;5.22;2.00;;;;;;;19.90;54.22;99520.70;1661653;83;21034;-69
2022/05/21 04:03:12;;;;;;;;;;;;;;;20.20;52.74;99509.05;1675795;83;21028;-70
2022/05/21 04:05:40;;;;;;;4.45;2.52;;;;;;;20.34;52.31;99504.72;1670428;83;20163;-70
2022/05/21 04:08:08;;;;;;;3.75;2.02;;;;;;;20.25;52.42;99492.82;1673070;83;21021;-70
2022/05/21 04:10:35;;;;;;;5.92;2.45;;;;;;;20.26;52.77;99489.56;1687160;83;21067;-73
2022/05/21 04:13:01;;;;;;;6.58;2.90;;;;;;;20.57;52.38;99495.19;1677594;83;21035;-71
2022/05/21 04:15:27;;;;;;;;;;;;;;;20.93;51.42;99503.21;1681398;83;20997;-72
2022/05/21 04:17:53;;;;;;;9.40;2.85;;;;;;;21.09;50.80;99508.56;1687168;83;20136;-70
2022/05/21 04:20:23;;;;;;;5.20;2.85;;;;;;;20.97;51.10;99510.25;1683066;83;21050;-70
2022/05/21 04:22:51;;;;;;;3.35;2.70;;;;;;;20.85;51.24;99514.63;1692120;83;21496;-69
2022/05/21 04:25:18;;;;;;;5.58;2.45;;;;;;;20.71;51.71;99513.58;1684327;83;21491;-69
2022/05/21 04:27:45;;;;;;;4.10;2.33;;;;;;;20.48;52.08;99516.33;1677296;83;21492;-69
2022/05/21 04:30:16;;;;;;;6.30;2.25;;;;;;;20.31;52.52;99507.95;1682487;83;21605;-69
2022/05/21 04:32:45;;;;;;;4.47;2.83;;;;;;;20.13;53.04;99511.22;1680189;83;21029;-70
2022/05/21 04:35:14;;;;;;;2.20;2.10;;;;;;;20.13;53.34;99515.28;1698656;82;21017;-71
2022/05/21 04:37:44;;;;;;;9.30;2.27;;;;;;;20.56;53.04;99519.81;1699965;83;21526;-71
2022/05/21 04:40:16;;;;;;;4.28;2.02;;;;;;;21.22;51.23;99517.44;1695045;83;21057;-70
2022/05/21 04:42:43;;;;;;;4.60;2.77;;;;;;;21.75;50.09;99525.00;1692721;83;21071;-73
2022/05/21 04:45:11;;;;;;;2.42;2.12;;;;;;;22.16;48.92;99531.47;1701289;83;21486;-71
2022/05/21 04:47:37;;;;;;;3.58;3.00;;;;;;;22.46;47.94;99520.09;1689270;83;21502;-70
2022/05/21 04:50:07;;;;;;;4.65;3.12;;;;;;;22.54;48.17;99518.09;1688555;83;21322;-70
2022/05/21 04:52:34;;;;;;;11.45;2.33;;;;;;;22.52;47.47;99512.15;1687541;83;21030;-70
2022/05/21 04:55:05;;;;;;;3.70;2.75;;;;;;;22.24;47.77;99509.12;1680080;84;21006;-71
2022/05/21 04:57:32;;;;;;;6.05;2.92;;;;;;;22.04;48.77;99510.66;1690972;83;21057;-70
2022/05/21 04:59:58;;;;;;;2.72;1.98;;;;;;;21.96;48.96;99507.49;1680092;83;21090;-74
2022/05/21 05:02:24;;;;;;;3.67;2.98;;;;;;;21.91;48.88;99499.39;1682985;83;21513;-70
2022/05/21 05:04:51;;;;;;;9.23;2.77;;;;;;;21.77;49.65;99497.87;1693127;83;21027;-70
2022/05/21 05:07:19;;;;;;;4.50;2.02;;;;;;;21.79;49.59;99494.86;1688605;83;21556;-71
2022/05/21 05:09:46;;;;;;;4.97;3.35;;;;;;;21.82;49.42;99494.30;1685933;83;21038;-70
2022/05/21 05:12:13;;;;;;;3.05;2.42;;;;;;;21.87;49.48;99488.84;1683030;83;21552;-71
2022/05/21 05:14:41;;;;;;;2.83;2.58;;;;;;;21.89;49.55;99488.56;1692184;83;21027;-72
2022/05/21 05:17:12;;;;;;;3.12;2.90;;;;;;;21.88;49.86;99486.38;1684109;83;21042;-72
2022/05/21 05:19:39;;;;;;;8.48;2.55;;;;;;;21.97;49.81;99483.32;1679917;83;21170;-72
2022/05/21 05:22:09;;;;;;;4.37;2.20;;;;;;;22.01;49.61;99478.69;1694733;83;21108;-73
2022/05/21 05:24:37;;;;;;;6.08;2.75;;;;;;;22.09;49.71;99480.22;1688036;83;21110;-72
2022/05/21 05:27:04;;;;;;;7.10;2.47;;;;;;;22.31;48.79;99472.19;1682758;83;20971;-71
2022/05/21 05:29:30;;;;;;;5.15;2.27;;;;;;;22.46;48.33;99469.30;1685996;83;21109;-70
2022/05/21 05:31:57;;;;;;;3.33;3.02;;;;;;;22.45;48.48;99472.30;1686217;83;21010;-73
2022/05/21 05:34:23;;;;;;;4.58;3.02;;;;;;;22.45;48.62;99458.73;1692095;83;20991;-71
2022/05/21 05:36:49;;;;;;;3.62;2.40;;;;;;;22.49;48.05;99459.77;1682282;83;21106;-72
2022/05/21 05:39:16;;;;;;;6.45;2.60;;;;;;;22.39;48.22;99452.55;1682969;83;21030;-73
2022/05/21 05:41:42;;;;;;;3.12;2.30;;;;;;;22.32;48.47;99450.72;1645069;85;21105;-72
2022/05/21 05:44:08;;;;;;;3.90;2.67;;;;;;;22.34;48.45;99458.05;1691333;83;21018;-71
2022/05/21 05:46:35;;;;;;;4.87;2.85;;;;;;;22.43;48.65;99455.50;1685191;83;21014;-72
2022/05/21 05:49:02;;;;;;;15.38;3.90;;;;;;;22.50;48.64;99449.98;1690431;83;22092;-72
2022/05/21 05:51:29;;;;;;;7.33;3.08;;;;;;;22.59;48.57;99442.56;1692730;83;21541;-73
2022/05/21 05:53:55;;;;;;;3.17;2.40;;;;;;;22.63;48.26;99437.61;1700805;83;21102;-74
2022/05/21 05:56:21;;;;;;;4.08;2.70;;;;;;;22.60;48.96;99441.45;1686741;83;21175;-71
2022/05/21 06:01:34;;;;;;;6.33;2.92;;;;;;;22.47;49.10;99437.00;1678083;83;21536;-71
2022/05/21 06:04:01;;;;;;;5.40;2.75;;;;;;;22.46;49.41;99435.92;1676375;83;21076;-71
2022/05/21 06:06:28;;;;;;;5.20;2.72;;;;;;;22.40;49.74;99430.30;1675055;83;21023;-72
2022/05/21 06:08:57;;;;;;;4.92;3.27;;;;;;;22.39;49.67;99428.67;1689383;83;21124;-72
2022/05/21 06:11:23;;;;;;;3.85;2.30;;;;;;;22.43;50.10;99432.41;1676145;83;21118;-71
2022/05/21 06:13:49;;;;;;;5.42;2.92;;;;;;;22.46;50.11;99427.78;1676262;84;21010;-71
2022/05/21 06:16:18;;;;;;;9.85;3.25;;;;;;;22.50;50.03;99422.82;1673671;84;21076;-70
2022/05/21 06:18:44;;;;;;;4.53;2.95;;;;;;;22.51;50.42;99421.73;1672108;84;21101;-70
2022/05/21 06:21:11;;;;;;;2.90;2.70;;;;;;;22.53;49.40;99420.09;1680594;84;21104;-70
2022/05/21 06:23:38;;;;;;;6.47;3.30;;;;;;;22.49;49.69;99420.39;1677983;83;21009;-70
2022/05/21 06:26:04;;;;;;;6.87;3.12;;;;;;;22.37;49.50;99415.94;1652153;85;21029;-70
2022/05/21 06:28:31;;;;;;;2.77;2.37;;;;;;;22.28;49.59;99411.15;1694457;84;21015;-70
2022/05/21 06:30:58;;;;;;;5.58;2.98;;;;;;;22.29;49.88;99414.11;1693659;83;21082;-73
2022/05/21 06:33:28;;;;;;;10.38;2.52;;;;;;;22.29;49.74;99414.11;1690265;84;21680;-72
2022/05/21 06:36:17;;;;;;;6.15;3.10;;;;;;;22.30;49.66;99414.38;1662415;85;21058;-70
2022/05/21 06:38:44;;;;;;;6.58;2.58;;;;;;;22.31;49.58;99413.27;1661388;85;21030;-71
2022/05/21 06:41:12;;;;;;;3.05;2.85;;;;;;;22.32;49.57;99416.26;1663334;85;21661;-72
2022/05/21 06:43:38;;;;;;;7.17;3.25;;;;;;;22.42;50.74;99416.69;1659402;85;21505;-73
2022/05/21 06:46:05;;;;;;;6.67;2.80;;;;;;;22.52;49.85;99417.11;1662227;84;20999;-71
2022/05/21 06:48:33;;;;;;;5.33;3.65;;;;;;;22.61;49.39;99419.44;1666067;85;21527;-70
2022/05/21 06:51:05;;;;;;;5.45;3.17;;;;;;;22.66;49.33;99419.91;1660648;85;21065;-71
2022/05/21 06:53:30;;;;;;;6.58;3.45;;;;;;;22.68;49.15;99415.83;1604750;88;20994;-71
2022/05/21 06:55:57;;;;;;;7.92;2.83;;;;;;;22.75;48.52;99420.89;1629820;86;21030;-71
2022/05/21 06:58:24;;;;;;;3.77;3.27;;;;;;;22.77;48.71;99421.95;1660730;85;21131;-70
2022/05/21 07:00:52;;;;;;;8.73;2.87;;;;;;;22.83;48.92;99414.82;1660447;83;21133;-74
2022/05/21 07:03:18;;;;;;;2.60;2.47;;;;;;;22.99;48.93;99414.61;1653692;85;21097;-71
2022/05/21 07:08:29;;;;;;;4.65;3.27;;;;;;;23.33;48.35;99406.24;1655975;85;21080;-73
2022/05/21 07:10:56;;;;;;;8.95;2.50;;;;;;;23.56;47.57;99403.14;1658753;85;21052;-68
2022/05/21 07:13:24;;;;;;;8.23;2.77;;;;;;;23.69;47.30;99394.78;1632601;86;21063;-71
2022/05/21 07:15:52;;;;;;;3.25;2.40;;;;;;;23.82;46.60;99400.83;1670747;84;21558;-66
2022/05/21 07:18:21;;;;;;;5.72;2.77;;;;;;;23.89;46.19;99399.89;1675272;84;21196;-64
2022/05/21 07:20:50;;;;;;;5.33;3.05;;;;;;;23.96;46.16;99389.98;1671446;84;21565;-67
2022/05/21 07:23:17;;;;;;;4.85;3.02;;;;;;;24.02;45.83;99394.22;1641294;86;21543;-68
2022/05/21 07:25:44;;;;;;;3.27;2.90;;;;;;;24.06;45.78;99396.59;1678783;84;21065;-68
2022/05/21 07:28:11;;;;;;;6.20;3.35;;;;;;;24.08;45.92;99386.77;1637656;86;21588;-66
2022/05/21 07:30:38;;;;;;;8.45;2.87;;;;;;;24.10;45.65;99386.70;1678775;84;21072;-67
2022/05/21 07:33:11;;;;;;;7.87;2.75;;;;;;;24.04;45.78;99382.48;1671351;84;21003;-69
2022/05/21 07:35:38;;;;;;;7.15;3.50;;;;;;;24.00;45.77;99371.14;1661278;84;21049;-67
2022/05/21 07:38:05;;;;;;;10.63;3.22;;;;;;;24.05;45.79;99364.22;1678979;84;21125;-70
2022/05/21 07:40:32;;;;;;;7.55;2.87;;;;;;;24.08;45.93;99364.98;1671248;84;21069;-67
2022/05/21 07:42:58;;;;;;;9.48;3.45;;;;;;;24.06;45.90;99363.13;1658974;84;21521;-68
2022/05/21 07:45:24;;;;;;;7.85;3.35;;;;;;;24.02;45.80;99360.20;1666446;84;21049;-65
2022/05/21 07:47:50;;;;;;;5.55;3.10;;;;;;;23.97;45.87;99362.21;1654940;85;21500;-67
2022/05/21 07:50:20;;;;;;;3.67;2.98;;;;;;;23.91;46.00;99358.78;1656849;85;21042;-65
2022/05/21 07:52:46;;;;;;;8.88;3.70;;;;;;;23.88;46.06;99351.20;1660411;85;21585;-66
2022/05/21 07:55:14;;;;;;;8.38;3.10;;;;;;;23.85;45.74;99349.91;1653747;85;21104;-65
2022/05/21 07:57:41;;;;;;;5.37;3.22;;;;;;;23.81;45.76;99345.34;1656864;85;21034;-66
2022/05/21 08:00:17;;;;;;;3.45;2.92;;;;;;;23.77;45.91;99342.41;1662487;85;21118;-65
2022/05/21 08:02:41;;;;;;;3.98;2.20;;;;;;;23.74;46.24;99340.28;1658496;85;21106;-65
2022/05/21 08:05:08;;;;;;;6.20;3.20;;;;;;;23.71;46.42;99331.35;1653941;85;21034;-68
2022/05/21 08:07:35;;;;;;;3.92;2.35;;;;;;;23.71;46.50;99328.09;1660020;85;21054;-67
2022/05/21 08:10:01;;;;;;;4.70;2.75;;;;;;;23.80;46.35;99328.22;1660241;85;21054;-65
2022/05/21 08:12:27;;;;;;;5.50;2.77;;;;;;;23.85;46.08;99319.17;1657390;85;21075;-65
2022/05/21 08:14:53;;;;;;;6.60;2.58;;;;;;;23.91;46.12;99319.31;1657856;85;21087;-69
2022/05/21 08:17:19;;;;;;;5.15;2.42;;;;;;;24.05;46.08;99319.31;1657822;85;21147;-64
2022/05/21 08:19:45;;;;;;;5.95;1.60;;;;;;;24.16;45.48;99316.63;1653127;85;21183;-65
2022/05/21 08:27:45;;;;;;;5.00;2.60;;;;;;;24.36;44.23;99322.78;1659852;85;21103;-66
2022/05/21 08:30:11;;;;;;;5.22;2.85;;;;;;;24.34;44.14;99320.36;1656995;85;21020;-65
2022/05/21 08:32:37;;;;;;;5.05;2.47;;;;;;;24.27;44.07;99325.41;1662461;85;21194;-67
2022/05/21 08:35:05;;;;;;;4.40;2.58;;;;;;;24.25;44.68;99331.72;1651316;85;21010;-66
2022/05/21 08:37:33;;;;;;;6.75;2.70;;;;;;;24.29;44.35;99324.55;1605701;88;21057;-66
2022/05/21 08:40:00;;;;;;;4.58;2.33;;;;;;;24.36;44.18;99324.95;1655623;85;21104;-66
2022/05/21 08:42:34;;;;;;;2.60;2.50;;;;;;;24.42;44.82;99320.99;1654129;85;21333;-67
2022/05/21 08:45:28;;;;;;;5.20;2.47;;;;;;;24.46;44.34;99314.38;1656299;85;21155;-68
2022/05/21 08:48:00;;;;;;;4.37;2.67;;;;;;;24.46;44.47;99313.02;1658607;85;21048;-66
2022/05/21 08:50:32;;;;;;;8.05;2.62;;;;;;;24.40;44.18;99305.52;1660456;85;21087;-66
2022/05/21 08:53:18;;;;;;;2.92;2.72;;;;;;;24.42;44.17;99311.46;1652422;85;22466;-66
2022/05/21 08:55:49;;;;;;;3.60;2.40;;;;;;;24.45;43.86;99304.05;1661208;85;21089;-66
2022/05/21 08:58:31;;;;;;;3.98;2.67;;;;;;;24.47;43.86;99302.39;1662292;85;21076;-67
2022/05/21 09:00:59;;;;;;;11.88;2.22;;;;;;;24.49;43.65;99301.53;1656838;85;21061;-67
2022/05/21 09:03:30;;;;;;;7.45;2.25;;;;;;;24.48;43.83;99295.81;1654252;85;21054;-67
2022/05/21 09:06:11;;;;;;;4.42;2.40;;;;;;;24.49;44.16;99293.36;1658366;85;21066;-67
2022/05/21 09:09:07;;;;;;;5.87;2.50;;;;;;;24.55;43.81;99292.15;1657662;85;21027;-67
2022/05/21 09:11:50;;;;;;;10.53;2.47;;;;;;;24.58;43.76;99291.55;1621649;86;20990;-68
2022/05/21 09:14:41;;;;;;;6.35;2.67;;;;;;;24.60;43.79;99291.22;1664485;85;21038;-67
2022/05/21 09:17:16;;;;;;;4.05;2.20;;;;;;;24.62;43.77;99288.45;1665065;85;21042;-68
2022/05/21 09:19:49;;;;;;;10.65;2.83;;;;;;;24.65;43.83;99280.21;1665993;86;21034;-67
2022/05/21 09:22:19;;;;;;;3.08;2.85;;;;;;;24.63;43.95;99276.99;1663692;86;20994;-67
2022/05/21 09:24:56;;;;;;;6.45;2.45;;;;;;;24.60;43.82;99274.34;1646193;85;21023;-65
2022/05/21 09:27:27;;;;;;;;;;;;;;;24.54;43.73;99262.48;1687882;83;21028;-67
2022/05/21 09:30:23;;;;;;;3.40;2.77;;;;;;;24.48;44.15;99271.30;1677752;83;20208;-67
2022/05/21 09:32:56;;;;;;;9.73;2.30;;;;;;;24.41;44.47;99270.91;1684758;83;21019;-66
2022/05/21 09:35:45;;;;;;;5.00;3.10;;;;;;;24.43;43.94;99277.68;1708720;82;21062;-66
2022/05/21 09:38:22;;;;;;;8.53;2.85;;;;;;;24.45;43.90;99286.91;1675663;83;21073;-67
2022/05/21 09:40:49;;;;;;;7.58;2.62;;;;;;;24.46;44.04;99292.59;1700482;83;21209;-67
2022/05/21 09:46:18;;;;;;;2.80;2.45;;;;;;;24.35;43.45;99296.09;1708018;82;21140;-70
2022/05/21 09:48:46;;;;;;;7.03;2.95;;;;;;;24.17;44.54;99312.81;1660732;84;21080;-70
2022/05/21 09:51:24;;;;;;;4.72;2.45;;;;;;;23.97;45.86;99322.75;1707834;83;21042;-67
2022/05/21 09:53:52;;;;;;;7.92;2.45;;;;;;;23.76;49.57;99319.02;1700760;82;21010;-69
2022/05/21 09:56:23;;;;;;;5.35;2.50;;;;;;;23.35;52.48;99318.95;1708071;83;21029;-66
2022/05/21 09:58:55;;;;;;;4.45;3.12;;;;;;;22.93;55.17;99326.36;1710793;82;21075;-67
2022/05/21 10:01:47;;;;;;;4.95;2.87;;;;;;;22.50;57.38;99314.77;1686483;83;21002;-67
2022/05/21 10:04:23;;;;;;;3.67;3.33;;;;;;;22.04;59.60;99307.98;1705120;82;21002;-67
2022/05/21 10:13:03;;;;;;;4.53;3.25;;;;;;;21.02;68.46;99300.28;1670105;84;21035;-69
2022/05/21 10:15:43;;;;;;;7.08;4.12;;;;;;;20.69;70.36;99318.90;1644194;86;21568;-67
2022/05/21 10:18:23;;;;;;;7.42;3.52;;;;;;;20.45;71.73;99304.39;1641850;86;22219;-69
2022/05/21 10:20:55;;;;;;;4.28;3.87;;;;;;;20.25;73.28;99302.58;1679016;84;21066;-67
2022/05/21 10:23:49;;;;;;;6.28;4.35;;;;;;;20.00;74.63;99302.44;1684102;84;21113;-68
2022/05/21 10:26:50;;;;;;;6.28;3.77;;;;;;;19.82;76.29;99311.14;1675621;84;21711;-68
2022/05/21 10:29:55;;;;;;;9.28;4.53;;;;;;;19.62;77.29;99307.89;1672619;84;21054;-69
2022/05/21 10:33:05;;;;;;;5.40;3.83;;;;;;;19.51;78.84;99300.89;1677030;84;21050;-68
2022/05/21 10:35:43;;;;;;;7.30;3.87;;;;;;;19.36;80.33;99277.39;1674814;84;20991;-69
2022/05/21 10:38:27;;;;;;;4.47;4.00;;;;;;;19.21;81.47;99269.59;1676559;84;21098;-67
2022/05/21 10:41:14;;;;;;;5.75;4.10;;;;;;;19.11;82.30;99262.02;1679533;84;21043;-68
2022/05/21 10:44:22;;;;;;;4.22;3.92;;;;;;;19.04;82.85;99256.88;1642557;84;21027;-69
2022/05/21 10:47:25;;;;;;;5.58;3.98;;;;;;;19.01;83.23;99268.24;1675598;85;21598;-68
2022/05/21 10:50:35;;;;;;;4.05;3.72;;;;;;;18.95;82.54;99266.60;1677828;85;21059;-67
2022/05/21 10:53:22;;;;;;;6.70;4.25;;;;;;;18.87;83.44;99263.90;1672556;84;21050;-68
2022/05/21 10:56:28;;;;;;;8.35;4.97;;;;;;;18.78;85.43;99244.72;1683141;84;22114;-69
2022/05/21 10:59:09;;;;;;;5.22;4.37;;;;;;;18.72;85.52;99252.52;1703252;84;21045;-69
2022/05/21 11:01:56;;;;;;;9.28;5.95;;;;;;;18.63;86.44;99254.95;1676621;84;21550;-70
2022/05/21 11:04:38;;;;;;;6.80;5.97;;;;;;;18.53;87.62;99252.77;1665119;84;21591;-69
2022/05/21 11:07:23;;;;;;;6.03;4.87;;;;;;;18.42;89.15;99240.63;1662428;86;21519;-67
2022/05/21 11:10:07;;;;;;;8.65;6.45;;;;;;;18.32;89.96;99232.48;1667508;84;21079;-68
2022/05/21 11:12:59;;;;;;;5.70;5.20;;;;;;;18.24;90.47;99229.78;1621021;86;21030;-71
2022/05/21 11:15:50;;;;;;;5.20;4.80;;;;;;;18.23;90.97;99219.25;1644054;85;21158;-69
2022/05/21 11:18:42;;;;;;;5.87;5.35;;;;;;;18.26;91.21;99203.89;1640509;85;21505;-69
2022/05/21 11:21:33;;;;;;;6.70;6.05;;;;;;;18.32;91.10;99193.92;1644913;85;21043;-67
2022/05/21 11:24:37;;;;;;;5.95;5.45;;;;;;;18.48;91.45;99192.33;1643221;85;21622;-69
2022/05/21 11:27:26;;;;;;;7.22;6.60;;;;;;;18.60;90.84;99195.30;1557607;88;21147;-69
2022/05/21 11:30:01;;;;;;;7.28;6.70;;;;;;;18.74;91.39;99198.27;1613570;87;21128;-68
2022/05/21 11:37:43;;;;;;;7.17;6.30;;;;;;;19.03;91.46;99195.32;1729914;81;21327;-68
2022/05/21 11:40:50;;;;;;;6.40;5.62;;;;;;;19.14;89.59;99188.02;1727991;81;21104;-68
2022/05/21 11:43:19;;;;;;;7.17;6.45;;;;;;;19.16;88.78;99178.30;1726816;81;21038;-69
2022/05/21 11:46:06;;;;;;;7.17;6.45;;;;;;;19.16;88.88;99162.09;1734214;81;21597;-67
2022/05/21 11:48:32;;;;;;;7.87;5.75;;;;;;;19.16;89.33;99154.79;1729002;81;21580;-68
2022/05/21 11:51:23;;;;;;;6.65;6.05;;;;;;;19.19;89.04;99155.61;1668495;84;21132;-68
2022/05/21 11:53:51;;;;;;;7.97;6.10;;;;;;;19.21;87.83;99150.73;1689365;83;21097;-67
2022/05/21 11:56:18;;;;;;;7.12;6.42;;;;;;;19.22;87.71;99165.84;1698855;83;20979;-68
2022/05/21 11:59:13;;;;;;;7.33;6.62;;;;;;;19.23;87.35;99167.48;1672976;84;21036;-67
2022/05/21 12:01:48;;;;;;;7.15;6.20;;;;;;;19.23;86.81;99164.77;1679253;84;21485;-66
2022/05/21 12:04:27;;;;;;;6.92;6.33;;;;;;;18.88;86.87;99099.50;1682410;84;21569;-67
2022/05/21 12:06:54;;;;;;;6.20;5.70;;;;;;;19.21;88.30;99137.23;1675448;84;21094;-67
2022/05/21 12:09:28;;;;;;;7.20;6.15;;;;;;;19.18;88.57;99125.61;1690808;84;21390;-68
2022/05/21 12:12:24;;;;;;;7.25;6.45;;;;;;;19.20;89.00;99116.69;1700591;83;21530;-68
2022/05/21 12:14:57;;;;;;;6.62;5.97;;;;;;;19.19;88.68;99117.79;1676715;84;21013;-67
2022/05/21 12:17:44;;;;;;;6.47;6.08;;;;;;;19.14;88.89;99113.74;1652371;85;21585;-66
2022/05/21 12:20:16;;;;;;;13.20;6.60;;;;;;;19.12;88.71;99107.81;1699044;83;21096;-69
2022/05/21 12:22:50;;;;;;;7.17;6.58;;;;;;;19.10;89.01;99093.77;1687335;83;21028;-67
2022/05/21 12:25:48;;;;;;;7.53;6.92;;;;;;;19.15;89.58;99088.89;1654557;84;21582;-67
2022/05/21 12:28:15;;;;;;;11.65;6.53;;;;;;;19.20;89.20;99083.48;1653538;84;21580;-70